Smith Valley, Nevada Weather observations

Data are for 10 minute period ending at time listed.
 Day   Time   Solar   Ave.   Ave.  Ave.  Vector  Max.   Baro.   Total    
  of    of     Rad.   Air    Rel.  Wind   Wind   Wind  Press.  Precip.   
Year   Day            Temp.  Hum.  Speed  Dir.   Gust                    
2026   (PST)  Kw/m2    F      %     mph   deg.    mph    mb.     in.     
-------------------------------------------------------------------------
 247    9:40   0.83   71.9    28    8.3   234    16.2   849.2    0.00 
 247    9:50   0.85   71.2    28    6.9   251    15.2   849.3    0.00 
 247   10:00   0.87   72.2    28   10.6   229    16.7   849.3    0.00 
 247   10:10   0.90   72.2    27    8.2   211    13.6   849.4    0.00 
 247   10:20   0.92   71.8    27    6.7   236    14.2   849.3    0.00 
 247   10:30   0.93   72.9    26    7.5   218    17.1   849.3    0.00 
 247   10:40   0.95   73.7    25    8.8   249    16.5   849.3    0.00 
 247   10:50   0.96   73.9    25    7.7   239    13.2   849.3    0.00 
 247   11:00   0.97   74.3    24    5.8   250    11.7   849.2    0.00 
 247   11:10   0.99   74.2    24    5.3   246    11.5   849.1    0.00 
 247   11:20   1.00   74.6    23    6.1   213    13.3   849.2    0.00 
 247   11:30   1.01   74.9    23    5.6   201    14.2   849.0    0.00 
 247   11:40   1.01   75.8    22    4.8   178    11.0   848.9    0.00 
 247   11:50   1.02   76.1    22    8.2   200    17.1   848.9    0.00 
 247   12:00   1.03   76.1    22    9.8   208    17.4   848.7    0.00 
 247   12:10   1.02   76.7    23    6.5   245    13.9   848.7    0.00 
 247   12:20   1.01   76.5    23    8.4   241    18.1   848.7    0.00 
 247   12:30   1.01   76.4    21    7.6   213    13.6   848.6    0.00 
 247   12:40   1.00   77.3    21   11.0   212    20.6   848.5    0.00 
 247   12:50   0.99   77.7    20    8.8   218    15.6   848.5    0.00 
 247   13:00   0.98   77.7    22    9.8   239    18.4   848.5    0.00 
 247   13:10   0.97   77.6    22    8.6   242    15.4   848.5    0.00 
 247   13:20   0.96   77.7    22   11.6   235    17.2   848.4    0.00 
 247   13:30   0.94   77.3    23   10.3   239    20.2   848.4    0.00 
 247   13:40   0.92   77.3    24   11.9   253    20.4   848.3    0.00 
 247   13:50   0.91   77.9    22   12.7   243    23.9   848.2    0.00 
 247   14:00   0.89   77.4    23   14.7   244    23.4   848.3    0.00 
 247   14:10   0.86   76.9    24   14.5   250    20.4   848.3    0.00 
 247   14:20   0.83   76.3    26   13.7   250    23.6   848.3    0.00 
 247   14:30   0.81   77.0    24   13.6   239    25.4   848.2    0.00 
 247   14:40   0.78   76.8    24   14.7   244    23.1   848.1    0.00 
 247   14:50   0.75   76.7    24   10.1   234    18.4   848.2    0.00 
 247   15:00   0.72   76.3    24   15.1   243    27.0   848.1    0.00 
 247   15:10   0.69   75.5    25   14.5   245    21.0   848.1    0.00 
 247   15:20   0.67   75.7    26   12.1   254    20.2   848.1    0.00 
 247   15:30   0.63   75.5    26   11.5   258    20.2   848.1    0.00 
 247   15:40   0.58   75.3    26   10.7   247    19.6   848.1    0.00 
 247   15:50   0.55   74.6    27   12.7   246    20.9   848.1    0.00 
 247   16:00   0.51   73.5    28   12.6   243    21.5   848.1    0.00 
 247   16:10   0.48   72.9    28   15.3   241    28.6   847.9    0.00 
 247   16:20   0.45   72.4    28   20.1   256    31.5   847.6    0.00 
 247   16:30   0.41   71.7    28   23.5   258    34.6   847.5    0.00 
 247   16:40   0.38   71.6    28   23.6   261    38.1   847.5    0.00 
 247   16:50   0.34   71.0    30   21.1   260    29.9   847.5    0.00 
 247   17:00   0.31   70.4    30   21.6   257    33.7   847.6    0.00 
 247   17:10   0.27   69.9    30   18.4   257    33.1   847.7    0.00 
 247   17:20   0.23   69.9    30   18.4   256    24.1   847.7    0.00 
 247   17:30   0.20   69.7    29   18.6   247    28.5   847.7    0.00 
 247   17:40   0.11   68.9    31   19.5   248    28.9   847.8    0.00 
 247   17:50   0.02   67.2    34   16.7   244    26.8   848.0    0.00 
 247   18:00   0.02   66.5    34   10.9   245    21.4   848.1    0.00 
 247   18:10   0.01   66.7    32   13.6   236    19.8   848.1    0.00 
 247   18:20   0.01   67.5    29   15.2   229    24.7   848.1    0.00 
 247   18:30   0.00   67.0    30   11.6   224    17.8   848.4    0.00 
 247   18:40   0.00   66.4    31    6.7   222    14.2   848.5    0.00 
 247   18:50   0.00   66.0    31    4.2   347    10.2   848.8    0.00 
 247   19:00   0.00   66.4    30    2.5   358     6.4   848.9    0.00 
 247   19:10   0.00   66.6    29    6.7   218    13.9   849.1    0.00 
 247   19:20   0.00   65.9    30    5.8   305    10.7   849.3    0.00 
 247   19:30   0.00   65.9    30    3.9   282     7.6   849.5    0.00 
 247   19:40   0.00   66.5    29    3.8    43    10.3   849.5    0.00 
 247   19:50   0.00   65.7    30    3.2    56     6.7   849.6    0.00 
 247   20:00   0.00   64.4    32    4.6   144     7.7   849.8    0.00 
 247   20:10   0.00   64.3    31    4.4   160     7.7   849.9    0.00 
 247   20:20   0.00   65.1    30    5.5   190    11.0   850.0    0.00 
 247   20:30   0.00   62.7    34    4.3   213     7.8   850.1    0.00 
 247   20:40   0.00   62.6    34    4.2   192     7.4   850.2    0.00 
 247   20:50   0.00   62.4    33    4.9   194    12.8   850.4    0.00 
 247   21:00   0.00   62.8    32    2.1   213     6.8   850.5    0.00 
 247   21:10   0.00   61.5    34    3.1    37     8.2   850.6    0.00 
 247   21:20   0.00   58.3    40    7.1    77     9.5   850.7    0.00 
 247   21:30   0.00   58.7    43    7.8    69    11.7   850.9    0.00 
 247   21:40   0.00   58.3    46    5.0    93     7.8   851.1    0.00 
 247   21:50   0.00   57.9    46    2.5    92     5.2   851.2    0.00 
 247   22:00   0.00   57.1    46    1.8   343     4.2   851.5    0.00 
 247   22:10   0.00   57.3    45    3.4   298     5.7   851.6    0.00 
 247   22:20   0.00   59.0    42    3.4    40     6.0   851.9    0.00 
 247   22:30   0.00   57.7    46    4.4   115     8.4   852.0    0.00 
 247   22:40   0.00   57.7    46    4.9   178    11.4   852.2    0.00 
 247   22:50   0.00   54.8    52    2.1   276     3.2   852.4    0.00 
 247   23:00   0.00   53.7    54    1.9   189     4.0   852.4    0.00 
 247   23:10   0.00   52.8    54    2.6   207     5.9   852.5    0.00 
 247   23:20   0.00   51.2    59    2.7    92     4.0   852.7    0.00 
 247   23:30   0.00   50.5    61    3.2   238     4.6   852.8    0.00 
 247   23:40   0.00   49.2    66    4.0   282     6.0   852.9    0.00 
 247   23:50   0.00   50.1    66    2.9   301     5.0   853.0    0.00 
 248    0:00   0.00   51.7    62    2.1   302     4.3   853.1    0.00 
 248    0:10   0.00   50.3    66    1.6   254     3.2   853.2    0.00 
 248    0:20   0.00   49.0    67    2.2   240     4.1   853.2    0.00 
 248    0:30   0.00   48.2    69    1.0   259     2.6   853.1    0.00 
 248    0:40   0.00   48.6    68    0.9   148     2.5   853.2    0.00 
 248    0:50   0.00   49.4    66    1.2   186     2.5   853.2    0.00 
 248    1:00   0.00   48.1    67    1.6   179     2.6   853.2    0.00 
 248    1:10   0.00   47.1    71    1.7   207     3.3   853.2    0.00 
 248    1:20   0.00   46.7    70    2.8   224     4.0   853.1    0.00 
 248    1:30   0.00   47.4    67    1.8   245     3.5   853.2    0.00 
 248    1:40   0.00   49.1    62    1.5   228     2.7   853.2    0.00 
 248    1:50   0.00   49.5    60    3.0   283     3.8   853.2    0.00 
 248    2:00   0.00   48.9    62    2.1   276     3.9   853.2    0.00 
 248    2:10   0.00   47.2    68    1.6   170     3.6   853.3    0.00 
 248    2:20   0.00   46.5    71    1.2   144     3.2   853.4    0.00 
 248    2:30   0.00   45.6    72    0.2   212     1.5   853.3    0.00 
 248    2:40   0.00   43.8    74    0.8   224     2.2   853.3    0.00 
 248    2:50   0.00   42.6    80    1.7   217     2.9   853.3    0.00 
 248    3:00   0.00   41.7    78    1.1   206     1.7   853.3    0.00 
 248    3:10   0.00   41.5    76    1.7   204     3.1   853.4    0.00 
 248    3:20   0.00   40.5    81    2.5   205     3.0   853.4    0.00 
 248    3:30   0.00   40.7    85    1.9   173     2.4   853.5    0.00 
 248    3:40   0.00   40.9    84    1.9   178     2.8   853.6    0.00 
 248    3:50   0.00   41.2    85    2.7   186     3.6   853.6    0.00 
 248    4:00   0.00   40.8    84    1.4   173     2.1   853.6    0.00 
 248    4:10   0.00   41.0    82    2.4   185     3.3   853.6    0.00 
 248    4:20   0.00   41.4    82    2.6   188     3.2   853.5    0.00 
 248    4:30   0.00   41.4    82    2.1   186     3.0   853.4    0.00 
 248    4:40   0.00   41.2    81    1.8   183     2.7   853.4    0.00 
 248    4:50   0.00   40.5    84    2.2   132     3.2   853.4    0.00 
 248    5:00   0.00   40.6    81    2.3   146     4.4   853.5    0.00 
 248    5:10   0.00   39.6    84    2.2    59     4.0   853.6    0.00 
 248    5:20   0.00   38.9    86    2.0    76     3.4   853.7    0.00 
 248    5:30   0.00   38.9    88    2.4   114     4.2   853.7    0.00 
 248    5:40   0.01   39.6    85    1.9   125     3.3   853.7    0.00 
 248    5:50   0.05   40.3    81    1.9   187     2.8   853.7    0.00 
 248    6:00   0.08   40.0    79    1.7   207     2.9   853.8    0.00 
 248    6:10   0.11   41.0    80    0.7   184     1.4   853.9    0.00 
 248    6:20   0.14   43.3    76    0.7   107     1.8   854.1    0.00 
 248    6:30   0.17   45.4    75    1.8   115     2.8   854.2    0.00 
 248    6:40   0.21   47.0    71    1.3   134     3.0   854.2    0.00 
 248    6:50   0.24   49.5    65    2.2   136     5.0   854.2    0.00 
 248    7:00   0.27   51.5    61    2.3   147     4.4   854.2    0.00 
 248    7:10   0.31   52.9    59    3.6   137     5.2   854.1    0.00 
 248    7:20   0.34   53.9    56    2.6   143     5.0   854.1    0.00 
 248    7:30   0.38   55.3    54    2.0   179     3.9   854.1    0.00 
 248    7:40   0.41   56.0    53    2.4   181     4.6   854.1    0.00 
 248    7:50   0.45   57.0    52    2.2   174     4.4   854.0    0.00 
 248    8:00   0.48   57.9    50    2.4   181     4.7   853.9    0.00 
 248    8:10   0.52   58.7    50    2.1   200     4.2   853.9    0.00 
 248    8:20   0.56   60.0    48    1.3   171     3.8   853.8    0.00 
 248    8:30   0.59   60.4    48    2.6    53     5.5   853.7    0.00 
 248    8:40   0.62   60.8    47    2.7    31     5.2   853.7    0.00 
 248    8:50   0.66   61.5    46    2.6    88     4.7   853.6    0.00 
 248    9:00   0.69   62.3    44    1.3   270     3.5   853.5    0.00 
 248    9:10   0.72   63.1    43    1.8   109     3.9   853.5    0.00 
 248    9:20   0.75   63.8    43    3.2   111     6.1   853.5    0.00 
 248    9:30   0.78   64.0    42    2.4    61     6.2   853.4    0.00 

Return to Smith Valley graphs page.


Western Regional Climate Center,wrcc@dri.edu